Time;durP1;ratioP1;P1;durP2;ratioP2;P2;SDS_P1;SDS_P2;PMS_P1;PMS_P2;Temp;Humidity;BMP_temperature;BMP_pressure;BME280_temperature;BME280_humidity;BME280_pressure;Samples;Min_cycle;Max_cycle;Signal;HPM_P1;HPM_P2
2022/09/12 00:01:12;;;;;;;0.30;0.30;;;17.10;99.90;18.00;101493.00;;;;5054466;28;20181;-70
2022/09/12 00:03:39;;;;;;;0.30;0.30;;;17.20;99.90;18.20;101460.00;;;;5055760;28;20179;-70
2022/09/12 00:06:32;;;;;;;0.30;0.30;;;17.20;99.90;18.30;101500.00;;;;5037171;28;20237;-70
2022/09/12 00:09:07;;;;;;;0.30;0.30;;;17.40;99.90;18.00;101501.00;;;;5037458;28;20184;-70
2022/09/12 00:11:36;;;;;;;0.33;0.33;;;17.40;99.90;18.00;101490.00;;;;5037688;28;20219;-70
2022/09/12 00:14:04;;;;;;;0.30;0.30;;;17.30;99.90;18.00;101491.00;;;;5037413;28;20181;-70
2022/09/12 00:16:33;;;;;;;0.30;0.30;;;17.30;99.90;17.40;101476.00;;;;5053948;28;20179;-70
2022/09/12 00:19:00;;;;;;;0.30;0.30;;;17.00;99.90;17.80;101483.00;;;;5037787;28;20646;-70
2022/09/12 00:21:26;;;;;;;0.30;0.30;;;17.00;99.90;17.90;101486.00;;;;5036158;28;20179;-70
2022/09/12 00:23:53;;;;;;;0.30;0.30;;;17.10;99.90;17.80;101481.00;;;;5037218;28;20700;-70
2022/09/12 00:26:20;;;;;;;0.30;0.30;;;17.10;99.90;17.30;101468.00;;;;5055038;28;20661;-70
2022/09/12 00:28:47;;;;;;;0.30;0.30;;;16.80;99.90;17.50;101465.00;;;;5037323;28;20190;-70
2022/09/12 00:31:18;;;;;;;0.30;0.30;;;16.80;99.90;17.70;101466.00;;;;5053750;28;20207;-70
2022/09/12 00:33:44;;;;;;;0.30;0.30;;;16.80;99.90;17.70;101450.00;;;;5036863;28;20183;-70
2022/09/12 00:36:18;;;;;;;0.30;0.30;;;16.80;99.90;17.50;101457.00;;;;5037319;28;20183;-69
2022/09/12 00:38:45;;;;;;;0.40;0.40;;;16.70;99.90;17.40;101451.00;;;;5037272;28;20263;-70
2022/09/12 00:41:22;;;;;;;0.30;0.30;;;16.60;99.90;17.50;101407.00;;;;5037211;28;20186;-70
2022/09/12 00:43:58;;;;;;;0.30;0.30;;;16.50;99.90;17.00;101443.00;;;;5036879;28;20638;-70
2022/09/12 00:46:55;;;;;;;0.30;0.30;;;16.40;99.90;17.30;101438.00;;;;5037065;28;20185;-70
2022/09/12 00:49:44;;;;;;;0.30;0.30;;;16.30;99.90;17.10;101439.00;;;;5035926;28;20285;-70
2022/09/12 00:52:13;;;;;;;0.30;0.30;;;16.40;99.90;17.00;101440.00;;;;5036973;28;20206;-70
2022/09/12 00:55:19;;;;;;;0.30;0.30;;;16.30;99.90;17.10;101438.00;;;;5036100;28;20676;-70
2022/09/12 00:58:03;;;;;;;0.30;0.30;;;16.20;99.90;17.10;101430.00;;;;5053642;28;20630;-70
2022/09/12 01:00:29;;;;;;;0.40;0.40;;;16.30;99.90;17.20;101385.00;;;;5037016;28;20269;-70
2022/09/12 01:03:04;;;;;;;0.30;0.30;;;16.30;99.90;17.40;101412.00;;;;5036613;28;20214;-70
2022/09/12 01:05:34;;;;;;;0.40;0.40;;;16.40;99.90;17.40;101405.00;;;;5036133;28;20196;-70
2022/09/12 01:08:04;;;;;;;0.30;0.30;;;16.50;99.90;17.40;101420.00;;;;5036638;28;20228;-70
2022/09/12 01:10:35;;;;;;;0.60;0.60;;;16.50;99.90;17.20;101414.00;;;;5033320;28;20187;-70
2022/09/12 01:13:04;;;;;;;0.30;0.30;;;16.40;99.90;17.30;101423.00;;;;5016454;28;20256;-70
2022/09/12 01:15:30;;;;;;;2.13;2.03;;;16.40;99.90;17.20;101407.00;;;;5016403;28;20169;-70
2022/09/12 01:18:20;;;;;;;0.30;0.30;;;16.40;99.90;16.80;101428.00;;;;5016692;28;20183;-69
2022/09/12 01:21:04;;;;;;;0.30;0.30;;;16.20;99.90;16.20;101419.00;;;;5016503;28;20622;-70
2022/09/12 01:23:47;;;;;;;0.60;0.60;;;15.90;99.90;16.90;101413.00;;;;5034070;28;20676;-70
2022/09/12 01:26:46;;;;;;;0.30;0.30;;;16.00;99.90;17.00;101413.00;;;;5032321;28;20179;-71
2022/09/12 01:29:34;;;;;;;0.30;0.30;;;16.00;99.90;17.00;101412.00;;;;5049638;28;20744;-71
2022/09/12 01:32:24;;;;;;;0.30;0.30;;;16.10;99.90;17.10;101398.00;;;;5016170;28;20421;-70
2022/09/12 01:35:21;;;;;;;0.30;0.30;;;16.20;99.90;17.20;101409.00;;;;5032265;28;20186;-70
2022/09/12 01:38:11;;;;;;;0.30;0.30;;;16.30;99.90;16.80;101413.00;;;;5033883;28;20209;-71
2022/09/12 01:40:58;;;;;;;0.30;0.30;;;16.20;99.90;16.90;101404.00;;;;5034053;28;20182;-70
2022/09/12 01:43:47;;;;;;;0.30;0.30;;;16.10;99.90;16.40;101392.00;;;;5016212;28;20282;-70
2022/09/12 01:46:26;;;;;;;0.30;0.30;;;16.00;99.90;16.50;101379.00;;;;5031621;28;20624;-70
2022/09/12 01:49:08;;;;;;;0.30;0.30;;;15.90;99.90;16.20;101387.00;;;;5016042;28;20177;-71
2022/09/12 01:51:55;;;;;;;0.30;0.30;;;15.70;99.90;16.40;101377.00;;;;5015599;28;20199;-69
2022/09/12 01:54:49;;;;;;;0.30;0.30;;;15.70;99.90;16.30;101387.00;;;;5014541;28;20198;-70
2022/09/12 01:57:31;;;;;;;0.27;0.27;;;15.70;99.90;16.30;101388.00;;;;5015145;28;20204;-70
2022/09/12 02:00:04;;;;;;;0.30;0.30;;;15.70;99.90;16.80;101377.00;;;;5015691;28;20191;-69
2022/09/12 02:02:49;;;;;;;0.30;0.30;;;15.80;99.90;16.50;101366.00;;;;5015491;28;20222;-70
2022/09/12 02:05:34;;;;;;;0.30;0.30;;;15.90;99.90;16.30;101372.00;;;;5016091;28;20186;-70
2022/09/12 02:08:12;;;;;;;0.30;0.30;;;15.70;99.90;16.30;101315.00;;;;5015576;28;20175;-70
2022/09/12 02:11:00;;;;;;;0.40;0.40;;;15.70;99.90;16.50;101372.00;;;;5015649;28;20180;-70
2022/09/12 02:13:50;;;;;;;0.30;0.30;;;15.70;99.90;16.40;101368.00;;;;5015426;28;20205;-70
2022/09/12 02:16:23;;;;;;;0.30;0.30;;;15.70;99.90;16.50;101375.00;;;;5033353;28;20193;-70
2022/09/12 02:19:04;;;;;;;0.30;0.30;;;15.70;99.90;16.20;101366.00;;;;5015857;28;20619;-70
2022/09/12 02:21:32;;;;;;;0.30;0.30;;;15.70;99.90;16.60;101360.00;;;;5014601;28;20195;-70
2022/09/12 02:24:02;;;;;;;0.30;0.30;;;15.70;99.90;16.40;101365.00;;;;5015934;28;20212;-70
2022/09/12 02:26:37;;;;;;;0.30;0.30;;;15.70;99.90;16.10;101358.00;;;;5015748;28;20183;-70
2022/09/12 02:29:03;;;;;;;0.30;0.30;;;15.60;99.90;16.30;101365.00;;;;5015594;28;20186;-70
2022/09/12 02:31:47;;;;;;;0.93;0.93;;;15.60;99.90;16.40;101366.00;;;;5014700;28;20223;-70
2022/09/12 02:34:50;;;;;;;0.30;0.30;;;15.70;99.90;16.30;101363.00;;;;5015696;28;20229;-70
2022/09/12 02:37:46;;;;;;;0.30;0.30;;;15.70;99.90;16.70;101362.00;;;;5012899;28;20295;-71
2022/09/12 02:40:13;;;;;;;0.30;0.30;;;15.70;99.90;16.50;101352.00;;;;5033426;28;20180;-71
2022/09/12 02:42:39;;;;;;;0.30;0.30;;;15.70;99.90;16.00;101356.00;;;;5015396;28;20213;-71
2022/09/12 02:45:06;;;;;;;0.40;0.40;;;15.60;99.90;16.40;101348.00;;;;5015455;28;20186;-71
2022/09/12 02:47:57;;;;;;;0.20;0.20;;;15.60;99.90;16.40;101356.00;;;;5015247;28;20278;-71
2022/09/12 02:50:25;;;;;;;2.30;2.20;;;15.70;99.90;16.40;101348.00;;;;5015515;28;20533;-70
2022/09/12 02:52:53;;;;;;;0.30;0.30;;;15.60;99.90;16.50;101339.00;;;;5033202;28;20194;-70
2022/09/12 02:55:19;;;;;;;0.87;0.87;;;15.70;99.90;16.40;101335.00;;;;5015125;28;20581;-70
2022/09/12 02:57:45;;;;;;;0.30;0.30;;;15.70;99.90;16.60;101293.00;;;;5014524;28;20262;-70
2022/09/12 03:00:12;;;;;;;0.30;0.30;;;15.70;99.90;16.90;101335.00;;;;5015371;28;20513;-70
2022/09/12 03:03:06;;;;;;;0.43;0.43;;;15.90;99.90;17.00;101334.00;;;;5014687;28;20228;-70
2022/09/12 03:05:46;;;;;;;0.30;0.30;;;16.00;99.90;16.90;101326.00;;;;5033030;28;20253;-71
2022/09/12 03:08:35;;;;;;;0.30;0.30;;;15.90;99.90;16.70;101324.00;;;;5014844;28;20671;-71
2022/09/12 03:11:36;;;;;;;0.30;0.30;;;15.90;99.90;16.30;101318.00;;;;5032587;28;20185;-69
2022/09/12 03:14:29;;;;;;;0.30;0.30;;;15.70;99.90;16.20;101320.00;;;;4989761;28;20199;-70
2022/09/12 03:17:11;;;;;;;0.30;0.30;;;15.50;99.90;16.20;101320.00;;;;5032774;28;20205;-71
2022/09/12 03:20:12;;;;;;;0.30;0.30;;;15.50;99.90;16.30;101324.00;;;;5051595;28;20187;-71
2022/09/12 03:23:47;;;;;;;0.30;0.30;;;15.40;99.90;16.20;101326.00;;;;5018657;28;20229;-71
2022/09/12 03:26:42;;;;;;;0.30;0.30;;;15.60;99.90;16.20;101325.00;;;;5018600;28;20182;-71
2022/09/12 03:29:10;;;;;;;0.23;0.23;;;15.50;99.90;16.40;101324.00;;;;5018251;28;20652;-71
2022/09/12 03:31:38;;;;;;;0.30;0.30;;;15.60;99.90;15.70;101331.00;;;;5026246;28;20219;-71
2022/09/12 03:34:04;;;;;;;0.20;0.20;;;15.40;99.90;15.60;101332.00;;;;5049273;28;20190;-71
2022/09/12 03:36:30;;;;;;;0.30;0.30;;;15.20;99.90;16.00;101337.00;;;;5053765;28;20281;-70
2022/09/12 03:38:56;;;;;;;0.30;0.30;;;15.30;99.90;16.40;101323.00;;;;5051536;28;20264;-70
2022/09/12 03:41:22;;;;;;;0.40;0.40;;;15.40;99.90;16.00;101283.00;;;;5035056;28;20277;-71
2022/09/12 03:43:48;;;;;;;0.50;0.50;;;15.40;99.90;15.90;101318.00;;;;5035791;28;20182;-70
2022/09/12 03:46:14;;;;;;;0.47;0.47;;;15.30;99.90;16.60;101324.00;;;;5034872;28;20183;-71
2022/09/12 03:48:40;;;;;;;0.30;0.30;;;15.40;99.90;16.50;101326.00;;;;5033972;28;20178;-71
2022/09/12 03:51:09;;;;;;;0.30;0.30;;;15.50;99.90;16.00;101316.00;;;;5035089;28;20208;-71
2022/09/12 03:53:35;;;;;;;0.20;0.20;;;15.40;99.90;16.30;101319.00;;;;5018297;28;20695;-71
2022/09/12 03:56:10;;;;;;;0.30;0.30;;;15.40;99.90;16.10;101285.00;;;;5018443;28;20174;-70
2022/09/12 03:58:36;;;;;;;0.30;0.30;;;15.30;99.90;15.90;101322.00;;;;5017845;28;20178;-70
2022/09/12 04:01:32;;;;;;;0.20;0.20;;;15.20;99.90;16.00;101324.00;;;;5016906;28;20529;-70
2022/09/12 04:03:58;;;;;;;0.23;0.23;;;15.20;99.90;16.10;101313.00;;;;5004946;28;20209;-70
2022/09/12 04:06:23;;;;;;;0.30;0.30;;;15.20;99.90;16.20;101319.00;;;;5037613;28;20636;-70
2022/09/12 04:08:52;;;;;;;0.30;0.30;;;15.30;99.90;15.90;101319.00;;;;5055623;28;20267;-69
2022/09/12 04:11:21;;;;;;;0.30;0.30;;;15.30;99.90;16.00;101317.00;;;;5037554;28;20178;-71
2022/09/12 04:13:47;;;;;;;0.20;0.20;;;15.20;99.90;15.80;101315.00;;;;5036236;28;20225;-70
2022/09/12 04:16:14;;;;;;;0.40;0.40;;;15.20;99.90;15.80;101284.00;;;;5055532;28;20182;-70
2022/09/12 04:18:40;;;;;;;0.20;0.20;;;15.10;99.90;15.60;101306.00;;;;5037574;28;20186;-71
2022/09/12 04:21:12;;;;;;;0.30;0.30;;;15.10;99.90;15.70;101316.00;;;;5037505;28;20690;-71
2022/09/12 04:23:38;;;;;;;0.30;0.30;;;15.10;99.90;15.90;101322.00;;;;5037620;28;20546;-70
2022/09/12 04:26:08;;;;;;;0.30;0.30;;;15.20;99.90;15.80;101320.00;;;;5037392;28;20211;-71
2022/09/12 04:28:37;;;;;;;0.30;0.30;;;15.10;99.90;16.20;101319.00;;;;5037691;28;20182;-71
2022/09/12 04:31:16;;;;;;;0.37;0.37;;;15.20;99.90;16.40;101317.00;;;;5035925;28;20179;-70
2022/09/12 04:33:44;;;;;;;1.47;1.40;;;15.40;99.90;16.40;101313.00;;;;5053919;28;20204;-70
2022/09/12 04:36:16;;;;;;;0.20;0.20;;;15.40;99.90;16.20;101307.00;;;;5037192;28;20185;-70
2022/09/12 04:38:44;;;;;;;0.30;0.30;;;15.40;99.90;16.00;101314.00;;;;5037659;28;20182;-70
2022/09/12 04:41:16;;;;;;;0.30;0.30;;;15.30;99.90;15.40;101314.00;;;;5054020;28;20549;-70
2022/09/12 04:43:45;;;;;;;0.30;0.30;;;15.10;99.90;15.20;101316.00;;;;5035059;28;20178;-70
2022/09/12 04:46:14;;;;;;;0.20;0.20;;;14.90;99.90;15.30;101327.00;;;;5054025;28;20187;-70
2022/09/12 04:48:40;;;;;;;0.37;0.37;;;14.90;99.90;15.50;101322.00;;;;5036230;28;20606;-71
2022/09/12 04:51:12;;;;;;;0.20;0.20;;;14.90;99.90;15.40;101328.00;;;;5036829;28;20764;-70
2022/09/12 04:53:38;;;;;;;0.23;0.23;;;14.90;99.90;16.00;101315.00;;;;5053477;28;20226;-71
2022/09/12 04:56:07;;;;;;;0.23;0.23;;;15.10;99.90;16.00;101327.00;;;;5036555;28;20213;-71
2022/09/12 04:58:38;;;;;;;0.20;0.20;;;15.30;99.90;15.60;101323.00;;;;5037119;28;20174;-70
2022/09/12 05:01:14;;;;;;;0.27;0.27;;;15.10;99.90;16.10;101325.00;;;;5036536;28;20517;-70
2022/09/12 05:03:42;;;;;;;0.30;0.30;;;15.10;99.90;16.10;101317.00;;;;5037068;28;20245;-71
2022/09/12 05:06:16;;;;;;;0.27;0.27;;;15.20;99.90;16.00;101317.00;;;;5036982;28;20182;-70
2022/09/12 05:08:43;;;;;;;0.20;0.20;;;15.10;99.90;15.60;101317.00;;;;5054648;28;20177;-70
2022/09/12 05:11:21;;;;;;;0.57;0.57;;;15.00;99.90;16.20;101322.00;;;;5054313;28;20261;-70
2022/09/12 05:13:47;;;;;;;0.30;0.30;;;15.10;99.90;16.20;101309.00;;;;5036345;28;20686;-70
2022/09/12 05:16:16;;;;;;;6.23;5.83;;;15.40;99.90;16.10;101312.00;;;;5019097;28;20609;-70
2022/09/12 05:18:43;;;;;;;0.30;0.30;;;15.30;99.90;15.70;101318.00;;;;5033665;28;20641;-70
2022/09/12 05:21:12;;;;;;;0.30;0.30;;;15.10;99.90;16.30;101317.00;;;;5033091;28;20182;-70
2022/09/12 05:23:39;;;;;;;0.40;0.40;;;15.20;99.90;16.60;101292.00;;;;5033081;28;20186;-70
2022/09/12 05:26:06;;;;;;;0.30;0.30;;;15.50;99.90;16.70;101315.00;;;;5032710;28;20192;-70
2022/09/12 05:28:36;;;;;;;0.40;0.40;;;15.70;99.90;16.10;101328.00;;;;5033127;28;20176;-70
2022/09/12 05:31:06;;;;;;;0.30;0.30;;;15.50;99.90;15.70;101315.00;;;;5031577;28;20179;-71
2022/09/12 05:33:35;;;;;;;0.30;0.30;;;15.20;99.90;15.50;101311.00;;;;5033426;28;20253;-70
2022/09/12 05:36:03;;;;;;;0.30;0.30;;;15.00;99.90;15.70;101321.00;;;;5031631;28;20191;-69
2022/09/12 05:38:29;;;;;;;0.50;0.50;;;15.00;99.90;15.90;101314.00;;;;5032553;28;20201;-70
2022/09/12 05:41:12;;;;;;;0.40;0.40;;;15.00;99.90;15.80;101314.00;;;;5032069;28;20177;-70
2022/09/12 05:43:41;;;;;;;0.30;0.30;;;15.00;99.90;15.80;101316.00;;;;5033126;28;20565;-70
2022/09/12 05:46:39;;;;;;;0.33;0.33;;;15.00;99.90;15.60;101307.00;;;;5033782;28;20170;-70
2022/09/12 05:49:22;;;;;;;1.00;1.00;;;15.00;99.90;16.00;101313.00;;;;5029860;28;20234;-70
2022/09/12 05:51:49;;;;;;;0.40;0.40;;;15.00;99.90;15.90;101308.00;;;;5031836;28;20210;-70
2022/09/12 05:54:18;;;;;;;1.03;1.03;;;15.10;99.90;15.80;101317.00;;;;5031931;28;20210;-70
2022/09/12 05:56:44;;;;;;;3.80;1.13;;;15.00;99.90;15.90;101316.00;;;;5031830;28;20635;-70
2022/09/12 05:59:20;;;;;;;0.87;0.87;;;15.00;99.90;15.90;101309.00;;;;5032339;28;20256;-70
2022/09/12 06:01:55;;;;;;;1.23;1.23;;;15.00;99.90;15.90;101314.00;;;;5032333;28;20637;-70
2022/09/12 06:04:41;;;;;;;0.33;0.33;;;15.10;99.90;15.90;101299.00;;;;5031385;28;20744;-71
2022/09/12 06:07:06;;;;;;;0.40;0.40;;;15.10;99.90;16.20;101308.00;;;;5033535;28;20183;-70
2022/09/12 06:09:45;;;;;;;0.60;0.60;;;15.30;99.90;16.30;101303.00;;;;5032132;28;20176;-70
2022/09/12 06:12:13;;;;;;;0.50;0.50;;;15.40;99.90;16.40;101286.00;;;;4995537;28;20230;-70
2022/09/12 06:14:39;;;;;;;0.40;0.40;;;15.60;99.90;16.50;101321.00;;;;5018612;28;20183;-70
2022/09/12 06:17:04;;;;;;;0.70;0.70;;;15.60;99.90;17.10;101315.00;;;;5024963;28;20181;-70
2022/09/12 06:19:30;;;;;;;0.53;0.53;;;16.00;99.90;17.50;101322.00;;;;4993531;28;20181;-70
2022/09/12 06:21:56;;;;;;;0.30;0.30;;;16.30;99.90;17.40;101316.00;;;;5024810;28;20275;-70
2022/09/12 06:24:25;;;;;;;0.80;0.80;;;16.40;99.90;17.20;101321.00;;;;5008372;28;20189;-70
2022/09/12 06:26:53;;;;;;;0.30;0.30;;;16.50;99.90;17.20;101323.00;;;;4993702;28;20181;-69
2022/09/12 06:29:19;;;;;;;0.40;0.40;;;16.50;99.90;18.40;101323.00;;;;4994036;28;20189;-69
2022/09/12 06:31:47;;;;;;;0.77;0.77;;;17.20;99.90;19.40;101325.00;;;;4993648;28;20298;-69
2022/09/12 06:34:15;;;;;;;0.55;0.55;;;18.00;99.90;19.60;101324.00;;;;5025321;28;20192;-70
2022/09/12 06:36:51;;;;;;;0.40;0.40;;;18.40;99.90;20.10;101350.00;;;;5025364;28;20586;-70
2022/09/12 06:39:22;;;;;;;1.45;1.17;;;18.90;99.90;20.70;101350.00;;;;5024109;28;20179;-70
2022/09/12 06:41:50;;;;;;;0.60;0.60;;;19.40;99.90;21.60;101365.00;;;;5025701;28;20184;-70
2022/09/12 06:44:19;;;;;;;0.65;0.65;;;20.10;99.90;20.20;101352.00;;;;4992414;28;20231;-70
2022/09/12 06:46:48;;;;;;;0.10;0.10;;;19.90;99.90;20.40;101357.00;;;;5025504;28;20270;-70
2022/09/12 06:49:25;;;;;;;1.00;1.00;;;19.90;99.90;21.40;101347.00;;;;5009019;28;20215;-69
2022/09/12 06:51:58;;;;;;;0.20;0.20;;;20.10;99.90;22.90;101358.00;;;;5024656;28;20215;-70
2022/09/12 06:54:29;;;;;;;0.22;0.22;;;21.30;99.90;21.60;101369.00;;;;5027503;28;20187;-69
2022/09/12 06:56:55;;;;;;;0.30;0.30;;;21.20;99.90;23.00;101368.00;;;;5012304;28;20210;-71
2022/09/12 06:59:24;;;;;;;0.77;0.77;;;21.50;99.90;22.30;101365.00;;;;5029175;28;20192;-71
2022/09/12 07:01:50;;;;;;;0.68;0.68;;;21.80;99.90;22.70;101370.00;;;;4997113;28;20659;-71
2022/09/12 07:04:16;;;;;;;0.43;0.43;;;21.80;99.90;23.30;101346.00;;;;5028664;28;20219;-71
2022/09/12 07:06:44;;;;;;;1.85;0.77;;;22.10;99.90;22.00;101368.00;;;;5029070;28;20217;-71
2022/09/12 07:09:25;;;;;;;0.30;0.30;;;21.70;99.90;23.00;101358.00;;;;5012605;28;20181;-71
2022/09/12 07:11:56;;;;;;;0.38;0.38;;;21.80;99.90;23.50;101399.00;;;;5028547;28;20203;-72
2022/09/12 07:14:29;;;;;;;0.75;0.75;;;22.40;99.90;23.40;101397.00;;;;4997211;28;20540;-72
2022/09/12 07:16:55;;;;;;;0.13;0.13;;;22.70;99.90;23.20;101399.00;;;;5028400;28;20691;-72
2022/09/12 07:19:21;;;;;;;0.20;0.20;;;22.40;99.90;22.10;101385.00;;;;5028856;28;20262;-72
2022/09/12 07:21:47;;;;;;;1.02;0.50;;;21.80;99.90;22.10;101381.00;;;;5028853;28;20184;-72
2022/09/12 07:24:15;;;;;;;0.10;0.10;;;21.60;99.90;22.20;101386.00;;;;5012141;28;20655;-71
2022/09/12 07:26:42;;;;;;;0.30;0.30;;;21.30;99.90;23.40;101402.00;;;;5028311;28;20161;-72
2022/09/12 07:29:15;;;;;;;0.20;0.20;;;21.90;99.90;22.60;101393.00;;;;4996907;28;20185;-72
2022/09/12 07:31:41;;;;;;;0.17;0.17;;;21.70;99.90;22.30;101399.00;;;;5028495;28;20224;-72
2022/09/12 07:34:07;;;;;;;0.20;0.20;;;21.50;99.90;22.50;101386.00;;;;5030298;28;20647;-71
2022/09/12 07:36:34;;;;;;;0.20;0.20;;;21.40;99.90;22.60;101408.00;;;;5029517;28;20179;-72
2022/09/12 07:39:00;;;;;;;0.50;0.50;;;21.70;99.90;21.60;101394.00;;;;5014814;28;20218;-73
2022/09/12 07:41:29;;;;;;;0.20;0.20;;;21.10;99.90;21.30;101346.00;;;;5047867;28;20179;-67
2022/09/12 07:43:58;;;;;;;0.20;0.20;;;20.80;99.90;21.40;101390.00;;;;4998051;28;20635;-72
2022/09/12 07:46:28;;;;;;;1.45;1.20;;;20.80;99.90;21.90;101402.00;;;;4998350;28;20691;-67
2022/09/12 07:49:01;;;;;;;0.10;0.10;;;21.00;99.90;22.80;101404.00;;;;5014613;28;20277;-67
2022/09/12 07:51:54;;;;;;;0.10;0.10;;;21.50;99.90;23.00;101389.00;;;;5014345;28;20183;-67
2022/09/12 07:54:23;;;;;;;0.10;0.10;;;22.10;99.90;24.10;101427.00;;;;5041057;28;20290;-67
2022/09/12 07:56:51;;;;;;;0.35;0.35;;;22.70;99.90;22.40;101420.00;;;;5014844;28;20543;-67
2022/09/12 07:59:17;;;;;;;0.63;0.63;;;22.20;99.90;23.30;101429.00;;;;5031223;28;20579;-67
2022/09/12 08:01:42;;;;;;;0.75;0.75;;;22.30;99.90;22.50;101385.00;;;;5047715;28;20250;-67
2022/09/12 08:04:08;;;;;;;0.10;0.10;;;22.10;99.90;23.50;101418.00;;;;5030747;28;20540;-70
2022/09/12 08:06:35;;;;;;;0.10;0.10;;;22.20;99.90;24.30;101393.00;;;;5031018;28;20179;-71
2022/09/12 08:09:03;;;;;;;0.93;0.93;;;22.90;99.90;23.40;101434.00;;;;5031278;28;20271;-70
2022/09/12 08:11:29;;;;;;;0.52;0.52;;;22.70;99.90;22.70;101427.00;;;;5031014;28;20164;-71
2022/09/12 08:13:58;;;;;;;0.10;0.10;;;22.40;99.90;23.70;101427.00;;;;5014508;28;20631;-71
2022/09/12 08:16:29;;;;;;;0.10;0.10;;;22.70;99.90;23.70;101428.00;;;;5031179;28;20188;-71
2022/09/12 08:18:56;;;;;;;0.10;0.10;;;22.60;99.90;24.80;101437.00;;;;5030906;28;20183;-71
2022/09/12 08:21:26;;;;;;;0.32;0.32;;;23.20;99.90;24.50;101448.00;;;;5022133;28;20643;-71
2022/09/12 08:24:32;;;;;;;0.75;0.75;;;23.30;99.90;22.90;101437.00;;;;4994473;28;20196;-68
2022/09/12 08:26:58;;;;;;;0.40;0.40;;;22.70;99.90;24.50;101424.00;;;;5034812;28;20207;-68
2022/09/12 08:29:49;;;;;;;1.88;1.27;;;23.10;99.90;24.10;101445.00;;;;5011391;28;20206;-68
2022/09/12 08:32:17;;;;;;;0.50;0.50;;;23.30;99.90;25.10;101461.00;;;;5011247;28;20258;-68
2022/09/12 08:34:48;;;;;;;0.22;0.22;;;23.70;99.90;25.40;101451.00;;;;5006454;28;20191;-69
2022/09/12 08:37:14;;;;;;;2.20;2.03;;;24.30;99.90;24.60;101441.00;;;;5019794;28;20192;-68
2022/09/12 08:39:45;;;;;;;0.63;0.57;;;23.90;99.90;24.50;101439.00;;;;5013725;28;20271;-68
2022/09/12 08:42:46;;;;;;;0.10;0.10;;;23.80;99.90;26.00;101458.00;;;;5018215;28;20211;-68
2022/09/12 08:45:41;;;;;;;0.30;0.30;;;24.20;99.90;24.20;101473.00;;;;5015145;28;20187;-68
2022/09/12 08:48:12;;;;;;;0.10;0.10;;;24.20;99.90;25.10;101440.00;;;;5011873;28;20164;-68
2022/09/12 08:50:43;;;;;;;0.35;0.35;;;23.90;99.90;24.20;101444.00;;;;5010761;28;20188;-68
2022/09/12 08:53:46;;;;;;;0.10;0.10;;;23.90;99.90;25.50;101450.00;;;;4994461;28;20246;-68
2022/09/12 08:56:12;;;;;;;0.10;0.10;;;23.70;99.90;25.50;101457.00;;;;5026041;28;20184;-72
2022/09/12 08:58:44;;;;;;;0.50;0.50;;;24.30;99.90;25.30;101442.00;;;;5010638;28;20173;-71
2022/09/12 09:01:41;;;;;;;0.10;0.10;;;24.20;99.90;25.10;101459.00;;;;4997121;28;20785;-71
2022/09/12 09:04:41;;;;;;;0.35;0.35;;;24.10;99.90;25.50;101461.00;;;;5022767;28;20671;-71
2022/09/12 09:07:44;;;;;;;0.03;0.03;;;24.60;99.90;27.40;101460.00;;;;5024510;28;20261;-71
2022/09/12 09:10:38;;;;;;;0.70;0.70;;;25.50;99.90;26.40;101426.00;;;;5010903;28;20245;-71
2022/09/12 09:16:30;;;;;;;0.10;0.10;;;24.30;99.90;25.50;101460.00;;;;5004138;28;20324;-72
2022/09/12 09:19:05;;;;;;;0.10;0.10;;;24.60;99.90;26.60;101451.00;;;;5016510;28;20294;-71
2022/09/12 09:21:50;;;;;;;0.30;0.30;;;25.20;99.90;25.50;101439.00;;;;5009914;28;20216;-71
2022/09/12 09:24:26;;;;;;;0.15;0.15;;;25.00;99.90;25.00;101455.00;;;;5010246;28;20184;-71
2022/09/12 09:27:05;;;;;;;0.20;0.20;;;24.50;99.90;25.60;101429.00;;;;5009149;28;20190;-71
2022/09/12 09:29:58;;;;;;;0.10;0.10;;;24.40;99.90;25.60;101434.00;;;;4995724;28;20674;-71
2022/09/12 09:32:37;;;;;;;0.55;0.55;;;24.80;99.90;25.20;101414.00;;;;5033072;28;20235;-71
2022/09/12 09:35:47;;;;;;;0.10;0.10;;;24.50;99.90;24.70;101415.00;;;;4998523;28;20180;-72
2022/09/12 09:38:42;;;;;;;0.15;0.15;;;24.00;99.90;26.60;101413.00;;;;5003259;28;20214;-72
2022/09/12 09:41:38;;;;;;;0.60;0.55;;;24.70;99.90;27.40;101386.00;;;;5013190;28;20184;-72
2022/09/12 09:44:04;;;;;;;0.20;0.20;;;25.90;99.90;24.90;101432.00;;;;5014513;28;20699;-72
2022/09/12 09:46:36;;;;;;;0.20;0.20;;;24.90;99.90;26.00;101411.00;;;;4994797;28;20246;-72
2022/09/12 09:49:08;;;;;;;0.10;0.10;;;25.00;99.90;26.40;101409.00;;;;5017960;28;20621;-72
2022/09/12 09:51:45;;;;;;;0.32;0.30;;;25.20;99.90;26.50;101404.00;;;;4993135;28;20192;-72
2022/09/12 09:54:20;;;;;;;0.10;0.10;;;25.40;99.90;27.90;101396.00;;;;4993479;28;20184;-72
2022/09/12 09:56:52;;;;;;;0.10;0.10;;;26.00;99.90;27.70;101406.00;;;;4993276;28;20214;-71
2022/09/12 09:59:30;;;;;;;0.10;0.10;;;26.40;99.90;26.70;101412.00;;;;5012470;28;20191;-72
2022/09/12 10:02:22;;;;;;;0.52;0.52;;;26.10;99.90;26.80;101415.00;;;;5034272;28;20196;-71
2022/09/12 10:04:56;;;;;;;0.10;0.10;;;25.80;99.90;27.00;101404.00;;;;5009397;28;20187;-72
2022/09/12 10:07:23;;;;;;;1.17;0.90;;;26.20;99.90;26.50;101413.00;;;;5016056;28;20187;-71
2022/09/12 10:10:18;;;;;;;0.57;0.57;;;26.00;99.90;26.90;101409.00;;;;5011119;28;20211;-71
2022/09/12 10:12:45;;;;;;;0.15;0.13;;;26.30;99.90;27.00;101406.00;;;;5016287;28;20294;-72
2022/09/12 10:15:28;;;;;;;0.15;0.15;;;26.10;99.90;28.00;101392.00;;;;5024422;28;20278;-75
2022/09/12 10:17:58;;;;;;;0.30;0.30;;;26.40;99.90;27.00;101399.00;;;;5016421;28;20192;-75
2022/09/12 10:20:33;;;;;;;0.10;0.10;;;26.30;99.90;26.10;101378.00;;;;5019419;28;20176;-75
2022/09/12 10:37:38;;;;;;;0.20;0.20;;;25.90;99.90;27.10;101391.00;;;;5089228;27;1235843;-75
2022/09/12 10:40:26;;;;;;;0.73;0.73;;;26.30;99.90;27.30;101384.00;;;;5127457;27;20180;-75
2022/09/12 10:42:56;;;;;;;0.20;0.20;;;26.40;99.90;27.40;101363.00;;;;5119829;28;20187;-75
2022/09/12 10:45:36;;;;;;;0.43;0.43;;;26.40;99.90;27.80;101374.00;;;;5126793;28;20235;-75
2022/09/12 10:48:30;;;;;;;0.43;0.43;;;26.80;99.90;28.00;101385.00;;;;5110768;28;20176;-75
2022/09/12 10:51:19;;;;;;;0.10;0.10;;;26.90;99.90;28.40;101379.00;;;;5109868;28;20176;-75
2022/09/12 10:53:45;;;;;;;0.20;0.20;;;26.90;99.90;28.20;101373.00;;;;5128301;28;20190;-75
2022/09/12 10:56:18;;;;;;;0.10;0.10;;;27.30;99.90;28.30;101381.00;;;;5130049;28;20180;-75
2022/09/12 10:59:21;;;;;;;0.10;0.10;;;27.30;99.90;28.30;101385.00;;;;5112518;28;20172;-75
2022/09/12 11:02:03;;;;;;;0.73;0.73;;;27.30;99.90;28.10;101340.00;;;;5130760;28;20649;-76
2022/09/12 11:05:09;;;;;;;0.10;0.10;;;27.50;99.90;28.60;101382.00;;;;5111931;28;20243;-75
2022/09/12 11:08:07;;;;;;;0.20;0.20;;;27.60;99.90;28.00;101376.00;;;;5115501;28;20179;-75
2022/09/12 11:10:38;;;;;;;3.42;0.30;;;27.30;99.90;28.10;101369.00;;;;5129780;27;20184;-76
2022/09/12 11:13:28;;;;;;;1.77;1.67;;;27.20;99.90;27.20;101379.00;;;;5129764;27;20198;-75
2022/09/12 11:16:53;;;;;;;0.10;0.10;;;26.70;99.90;27.40;101386.00;;;;5130377;27;20178;-75
2022/09/12 11:19:52;;;;;;;0.10;0.10;;;26.60;99.90;28.00;101381.00;;;;5111919;28;20214;-76
2022/09/12 11:22:38;;;;;;;0.10;0.10;;;26.80;99.90;29.20;101364.00;;;;5129621;28;20180;-76
2022/09/12 11:33:04;;;;;;;0.25;0.25;;;27.50;99.90;27.40;101357.00;;;;5122576;28;20222;-76
2022/09/12 11:35:46;;;;;;;0.10;0.10;;;27.30;99.90;29.30;101374.00;;;;5118612;28;20194;-76
2022/09/12 11:38:42;;;;;;;0.20;0.20;;;27.60;99.90;28.60;101328.00;;;;5128977;28;20196;-76
2022/09/12 11:41:19;;;;;;;0.28;0.28;;;27.70;99.90;28.70;101325.00;;;;5130607;27;20276;-81
2022/09/12 11:44:07;;;;;;;0.10;0.10;;;27.70;99.90;27.90;101332.00;;;;5121194;28;20256;-81
2022/09/12 11:46:39;;;;;;;0.25;0.25;;;27.70;99.90;27.50;101389.00;;;;5115395;28;20176;-81
2022/09/12 11:52:45;;;;;;;0.10;0.10;;;25.30;99.90;27.30;101380.00;;;;5098120;28;20220;-81
2022/09/12 11:55:18;;;;;;;0.15;0.15;;;25.70;99.90;28.70;101352.00;;;;5094800;28;20177;-81